Time;durP1;ratioP1;P1;durP2;ratioP2;P2;SDS_P1;SDS_P2;PMS_P1;PMS_P2;Temp;Humidity;BMP_temperature;BMP_pressure;BME280_temperature;BME280_humidity;BME280_pressure;Samples;Min_cycle;Max_cycle;Signal;HPM_P1;HPM_P2
2024/03/14 00:02:01;;;;;;;8.75;3.17;;;;;;;;;;5079965;28;20383;-39
2024/03/14 00:04:28;;;;;;;19.40;3.53;;;;;;;;;;5082444;28;20040;-38
2024/03/14 00:06:57;;;;;;;10.45;3.25;;;;;;;;;;5082974;28;20127;-40
2024/03/14 00:09:25;;;;;;;13.40;3.50;;;;;;;;;;5082163;28;20511;-37
2024/03/14 00:11:52;;;;;;;10.60;3.38;;;;;;;;;;5076143;28;20077;-37
2024/03/14 00:14:19;;;;;;;12.73;3.45;;;;;;;;;;5089442;28;20032;-37
2024/03/14 00:16:46;;;;;;;13.93;3.40;;;;;;;;;;5095311;28;20036;-40
2024/03/14 00:19:13;;;;;;;16.30;3.30;;;;;;;;;;5092389;28;20684;-37
2024/03/14 00:21:41;;;;;;;10.07;3.13;;;;;;;;;;5110801;28;20028;-38
2024/03/14 00:24:08;;;;;;;15.25;3.63;;;;;;;;;;5091385;28;20044;-40
2024/03/14 00:26:35;;;;;;;13.20;3.40;;;;;;;;;;5083483;28;20027;-40
2024/03/14 00:29:02;;;;;;;14.63;4.20;;;;;;;;;;5083394;28;20074;-40
2024/03/14 00:31:29;;;;;;;19.98;4.20;;;;;;;;;;5083222;28;20066;-41
2024/03/14 00:33:56;;;;;;;18.52;3.45;;;;;;;;;;5084628;28;20020;-41
2024/03/14 00:36:23;;;;;;;18.08;4.53;;;;;;;;;;5087168;28;20034;-43
2024/03/14 00:38:50;;;;;;;13.57;3.50;;;;;;;;;;5110162;28;20143;-40
2024/03/14 00:41:19;;;;;;;20.63;3.92;;;;;;;;;;5102188;28;20389;-40
2024/03/14 00:43:47;;;;;;;12.63;3.30;;;;;;;;;;5083082;28;20048;-40
2024/03/14 00:46:17;;;;;;;18.20;3.70;;;;;;;;;;5066457;28;20075;-38
2024/03/14 00:48:44;;;;;;;14.45;3.97;;;;;;;;;;5089366;28;20032;-43
2024/03/14 00:51:11;;;;;;;13.57;3.97;;;;;;;;;;5087877;28;20032;-41
2024/03/14 00:53:38;;;;;;;14.07;4.35;;;;;;;;;;5091598;28;20063;-42
2024/03/14 00:56:05;;;;;;;16.40;4.05;;;;;;;;;;5073806;28;20104;-40
2024/03/14 00:58:32;;;;;;;16.13;4.82;;;;;;;;;;5092055;28;20032;-41
2024/03/14 01:00:59;;;;;;;14.63;4.80;;;;;;;;;;5091912;28;20482;-43
2024/03/14 01:03:27;;;;;;;24.80;5.13;;;;;;;;;;5091532;28;20054;-41
2024/03/14 01:05:55;;;;;;;16.40;5.28;;;;;;;;;;5090933;28;20024;-42
2024/03/14 01:08:22;;;;;;;16.13;5.03;;;;;;;;;;5091214;28;20515;-39
2024/03/14 01:10:49;;;;;;;14.07;5.10;;;;;;;;;;5091301;28;20028;-42
2024/03/14 01:13:16;;;;;;;16.55;5.07;;;;;;;;;;5083894;28;20069;-40
2024/03/14 01:15:44;;;;;;;18.02;4.47;;;;;;;;;;5077560;28;20050;-42
2024/03/14 01:18:11;;;;;;;15.18;4.45;;;;;;;;;;5090809;28;20039;-40
2024/03/14 01:20:38;;;;;;;12.20;4.10;;;;;;;;;;5091957;28;20482;-38
2024/03/14 01:23:08;;;;;;;15.20;3.78;;;;;;;;;;5087079;28;20044;-40
2024/03/14 01:25:35;;;;;;;20.45;3.90;;;;;;;;;;5090570;28;20032;-40
2024/03/14 01:28:02;;;;;;;9.80;3.65;;;;;;;;;;5091580;28;20107;-42
2024/03/14 01:30:29;;;;;;;7.63;3.00;;;;;;;;;;5091270;28;20028;-42
2024/03/14 01:32:56;;;;;;;7.43;3.28;;;;;;;;;;5091175;28;20035;-41
2024/03/14 01:35:24;;;;;;;6.60;3.20;;;;;;;;;;5084431;28;20032;-41
2024/03/14 01:37:51;;;;;;;8.90;3.22;;;;;;;;;;5091389;28;20028;-41
2024/03/14 01:40:18;;;;;;;6.90;3.33;;;;;;;;;;5085350;28;20024;-41
2024/03/14 01:42:45;;;;;;;8.40;3.00;;;;;;;;;;5091342;28;20386;-40
2024/03/14 01:45:15;;;;;;;6.22;2.58;;;;;;;;;;5084418;28;20131;-40
2024/03/14 01:47:47;;;;;;;6.15;3.15;;;;;;;;;;5091443;28;20028;-42
2024/03/14 01:50:14;;;;;;;7.40;2.60;;;;;;;;;;5085159;28;20394;-42
2024/03/14 01:52:45;;;;;;;11.25;2.55;;;;;;;;;;5087400;28;20036;-42
2024/03/14 01:55:13;;;;;;;11.15;3.25;;;;;;;;;;5090581;28;20519;-38
2024/03/14 01:57:41;;;;;;;10.90;3.78;;;;;;;;;;5090176;28;20040;-38
2024/03/14 02:00:11;;;;;;;10.30;2.85;;;;;;;;;;5091035;28;20036;-39
2024/03/14 02:02:38;;;;;;;3.95;2.60;;;;;;;;;;5090618;28;20044;-37
2024/03/14 02:05:13;;;;;;;6.60;2.90;;;;;;;;;;5090330;28;20106;-39
2024/03/14 02:07:40;;;;;;;8.75;3.25;;;;;;;;;;5087462;28;20139;-38
2024/03/14 02:10:10;;;;;;;6.05;3.35;;;;;;;;;;5090341;28;20035;-37
2024/03/14 02:12:38;;;;;;;5.35;3.03;;;;;;;;;;5090525;28;20104;-36
2024/03/14 02:15:08;;;;;;;6.45;3.22;;;;;;;;;;5088750;28;20085;-40
2024/03/14 02:17:36;;;;;;;5.03;2.92;;;;;;;;;;5090549;28;20071;-37
2024/03/14 02:20:05;;;;;;;6.55;3.20;;;;;;;;;;5090812;28;20085;-39
2024/03/14 02:22:32;;;;;;;4.55;2.45;;;;;;;;;;5091003;28;20028;-35
2024/03/14 02:24:59;;;;;;;7.20;2.72;;;;;;;;;;5091024;28;20036;-38
2024/03/14 02:27:26;;;;;;;4.13;2.65;;;;;;;;;;5089664;28;20028;-40
2024/03/14 02:29:53;;;;;;;4.47;2.70;;;;;;;;;;5090573;28;20032;-38
2024/03/14 02:32:20;;;;;;;2.85;2.60;;;;;;;;;;5090220;28;20028;-37
2024/03/14 02:34:47;;;;;;;3.25;2.90;;;;;;;;;;5090948;28;20393;-37
2024/03/14 02:37:14;;;;;;;5.90;3.10;;;;;;;;;;5090535;28;20089;-36
2024/03/14 02:39:41;;;;;;;4.40;2.95;;;;;;;;;;5090941;28;20783;-38
2024/03/14 02:42:11;;;;;;;4.40;2.70;;;;;;;;;;5072888;28;20025;-39
2024/03/14 02:44:38;;;;;;;3.00;2.70;;;;;;;;;;5070190;28;20510;-35
2024/03/14 02:47:07;;;;;;;3.85;2.90;;;;;;;;;;5070410;28;20048;-39
2024/03/14 02:49:34;;;;;;;7.07;2.72;;;;;;;;;;5070360;28;20040;-39
2024/03/14 02:52:01;;;;;;;3.58;2.72;;;;;;;;;;5075878;28;20506;-39
2024/03/14 02:54:30;;;;;;;3.72;2.97;;;;;;;;;;5079783;28;20028;-35
2024/03/14 02:56:57;;;;;;;5.28;3.00;;;;;;;;;;5080229;28;20040;-37
2024/03/14 02:59:24;;;;;;;2.92;2.60;;;;;;;;;;5081484;28;20032;-36
2024/03/14 03:01:53;;;;;;;3.15;2.88;;;;;;;;;;5080400;28;20493;-36
2024/03/14 03:04:20;;;;;;;3.00;2.50;;;;;;;;;;5081137;28;20119;-38
2024/03/14 03:06:54;;;;;;;3.15;2.70;;;;;;;;;;5079373;28;20024;-35
2024/03/14 03:09:22;;;;;;;5.95;2.55;;;;;;;;;;5071392;28;20043;-36
2024/03/14 03:11:48;;;;;;;4.18;2.75;;;;;;;;;;5072949;28;20030;-40
2024/03/14 03:14:15;;;;;;;2.92;2.72;;;;;;;;;;5074416;28;20033;-40
2024/03/14 03:16:44;;;;;;;6.90;2.55;;;;;;;;;;5074496;28;20120;-39
2024/03/14 03:19:11;;;;;;;6.35;2.90;;;;;;;;;;5074340;28;20108;-40
2024/03/14 03:21:38;;;;;;;3.55;2.78;;;;;;;;;;5074255;28;20036;-40
2024/03/14 03:24:08;;;;;;;3.95;2.95;;;;;;;;;;5074228;28;20553;-39
2024/03/14 03:26:36;;;;;;;4.20;3.22;;;;;;;;;;5074308;28;20047;-39
2024/03/14 03:29:06;;;;;;;4.90;2.80;;;;;;;;;;5074065;28;20082;-40
2024/03/14 03:31:34;;;;;;;6.25;3.03;;;;;;;;;;5073851;28;20141;-35
2024/03/14 03:34:01;;;;;;;4.80;3.00;;;;;;;;;;5074033;28;20044;-39
2024/03/14 03:36:29;;;;;;;6.60;2.90;;;;;;;;;;5073942;28;20040;-35
2024/03/14 03:39:00;;;;;;;4.13;3.08;;;;;;;;;;5074024;28;20063;-38
2024/03/14 03:41:29;;;;;;;4.45;3.17;;;;;;;;;;5073956;28;20068;-38
2024/03/14 03:43:57;;;;;;;5.47;3.42;;;;;;;;;;5073633;28;20047;-38
2024/03/14 03:46:24;;;;;;;4.28;3.50;;;;;;;;;;5073906;28;20066;-38
2024/03/14 03:48:52;;;;;;;4.03;3.30;;;;;;;;;;5073873;28;20020;-39
2024/03/14 03:51:19;;;;;;;4.15;3.28;;;;;;;;;;5073825;28;20493;-37
2024/03/14 03:53:46;;;;;;;5.40;3.40;;;;;;;;;;5073546;28;20457;-40
2024/03/14 03:56:14;;;;;;;3.55;2.97;;;;;;;;;;5073728;28;20067;-38
2024/03/14 03:58:42;;;;;;;4.43;3.20;;;;;;;;;;5073640;28;20028;-38
2024/03/14 04:01:12;;;;;;;5.70;3.42;;;;;;;;;;5073587;28;20447;-35
2024/03/14 04:03:42;;;;;;;5.18;3.25;;;;;;;;;;5073398;28;20037;-34
2024/03/14 04:06:15;;;;;;;3.83;2.70;;;;;;;;;;5073211;28;20131;-34
2024/03/14 04:08:45;;;;;;;4.10;3.10;;;;;;;;;;5093573;28;20052;-36
2024/03/14 04:11:15;;;;;;;3.85;3.05;;;;;;;;;;5093751;28;20039;-38
2024/03/14 04:13:42;;;;;;;3.25;2.95;;;;;;;;;;5075307;28;20436;-37
2024/03/14 04:16:12;;;;;;;3.50;3.20;;;;;;;;;;5093622;28;20028;-33
2024/03/14 04:18:39;;;;;;;5.78;3.65;;;;;;;;;;5093384;28;20036;-37
2024/03/14 04:21:07;;;;;;;4.43;3.35;;;;;;;;;;5093422;28;20539;-37
2024/03/14 04:23:35;;;;;;;9.65;3.90;;;;;;;;;;5093086;28;20040;-35
2024/03/14 04:26:02;;;;;;;4.45;3.10;;;;;;;;;;5093243;28;20032;-36
2024/03/14 04:28:29;;;;;;;3.17;2.78;;;;;;;;;;5093220;28;20031;-35
2024/03/14 04:30:56;;;;;;;3.80;3.05;;;;;;;;;;5075016;28;20520;-36
2024/03/14 04:33:23;;;;;;;4.28;3.25;;;;;;;;;;5093110;28;20028;-34
2024/03/14 04:35:52;;;;;;;5.03;3.42;;;;;;;;;;5093222;28;20149;-35
2024/03/14 04:38:23;;;;;;;6.15;3.42;;;;;;;;;;5093136;28;20040;-34
2024/03/14 04:40:50;;;;;;;3.47;3.17;;;;;;;;;;5093103;28;20036;-36
2024/03/14 04:43:18;;;;;;;4.03;3.60;;;;;;;;;;5092880;28;20502;-37
2024/03/14 04:45:45;;;;;;;5.10;3.40;;;;;;;;;;5092854;28;20051;-35
2024/03/14 04:48:12;;;;;;;5.50;3.85;;;;;;;;;;5092965;28;20050;-36
2024/03/14 04:50:40;;;;;;;4.70;3.83;;;;;;;;;;5092821;28;20050;-34
2024/03/14 04:53:09;;;;;;;5.93;4.03;;;;;;;;;;5092856;28;20551;-35
2024/03/14 04:55:36;;;;;;;5.78;4.05;;;;;;;;;;5092793;28;20100;-35
2024/03/14 04:58:03;;;;;;;5.50;4.07;;;;;;;;;;5092712;28;20023;-35
2024/03/14 05:00:31;;;;;;;7.47;4.30;;;;;;;;;;5092717;28;20027;-37
2024/03/14 05:02:58;;;;;;;4.72;3.75;;;;;;;;;;5092589;28;20024;-35
2024/03/14 05:05:25;;;;;;;4.55;3.80;;;;;;;;;;5092488;28;20031;-34
2024/03/14 05:07:53;;;;;;;4.30;3.90;;;;;;;;;;5092300;28;20052;-38
2024/03/14 05:10:20;;;;;;;5.18;3.72;;;;;;;;;;5092402;28;20035;-34
2024/03/14 05:12:47;;;;;;;7.50;3.60;;;;;;;;;;5092438;28;20031;-36
2024/03/14 05:15:14;;;;;;;3.22;2.92;;;;;;;;;;5092413;28;20048;-35
2024/03/14 05:17:45;;;;;;;3.40;3.10;;;;;;;;;;5092388;28;20026;-35
2024/03/14 05:20:13;;;;;;;3.53;3.22;;;;;;;;;;5092359;28;20055;-37
2024/03/14 05:22:40;;;;;;;5.20;3.10;;;;;;;;;;5092297;28;20020;-36
2024/03/14 05:25:09;;;;;;;4.95;3.22;;;;;;;;;;5092242;28;20496;-35
2024/03/14 05:27:36;;;;;;;3.38;3.08;;;;;;;;;;5092093;28;20028;-38
2024/03/14 05:30:03;;;;;;;3.28;2.97;;;;;;;;;;5092258;28;20030;-34
2024/03/14 05:32:32;;;;;;;3.80;3.40;;;;;;;;;;5091951;28;20016;-34
2024/03/14 05:34:59;;;;;;;3.85;3.45;;;;;;;;;;5091618;28;20040;-34
2024/03/14 05:37:26;;;;;;;3.58;3.10;;;;;;;;;;5092293;28;20442;-35
2024/03/14 05:39:53;;;;;;;4.18;3.33;;;;;;;;;;5092044;28;20039;-34
2024/03/14 05:42:20;;;;;;;4.32;3.65;;;;;;;;;;5073681;28;20024;-34
2024/03/14 05:44:50;;;;;;;3.65;3.35;;;;;;;;;;5091779;28;20038;-34
2024/03/14 05:47:17;;;;;;;4.28;3.90;;;;;;;;;;5091917;28;20099;-36
2024/03/14 05:49:44;;;;;;;4.03;3.50;;;;;;;;;;5091941;28;20024;-35
2024/03/14 05:52:11;;;;;;;3.78;3.47;;;;;;;;;;5091728;28;20095;-33
2024/03/14 05:54:38;;;;;;;3.17;2.95;;;;;;;;;;5086508;28;20475;-37
2024/03/14 05:57:06;;;;;;;3.72;3.08;;;;;;;;;;5071625;28;20032;-39
2024/03/14 05:59:36;;;;;;;2.80;2.60;;;;;;;;;;5071566;28;20505;-38
2024/03/14 06:02:03;;;;;;;3.55;2.63;;;;;;;;;;5082090;28;20134;-34
2024/03/14 06:04:30;;;;;;;3.75;2.33;;;;;;;;;;5091610;28;20042;-35
2024/03/14 06:06:57;;;;;;;2.72;2.50;;;;;;;;;;5091506;28;20469;-35
2024/03/14 06:09:32;;;;;;;2.60;2.40;;;;;;;;;;5091764;28;20028;-37
2024/03/14 06:12:00;;;;;;;2.70;2.50;;;;;;;;;;5091615;28;20470;-36
2024/03/14 06:14:27;;;;;;;2.47;2.28;;;;;;;;;;5091522;28;20028;-34
2024/03/14 06:16:54;;;;;;;2.70;2.50;;;;;;;;;;5091576;28;20486;-34
2024/03/14 06:19:21;;;;;;;3.55;3.13;;;;;;;;;;5091605;28;20020;-38
2024/03/14 06:21:50;;;;;;;4.05;3.58;;;;;;;;;;5091505;28;20052;-36
2024/03/14 06:24:17;;;;;;;3.70;3.40;;;;;;;;;;5091371;28;20482;-33
2024/03/14 06:26:47;;;;;;;4.50;3.25;;;;;;;;;;5091563;28;20034;-36
2024/03/14 06:29:14;;;;;;;3.50;3.20;;;;;;;;;;5073340;28;20567;-38
2024/03/14 06:31:44;;;;;;;3.42;2.90;;;;;;;;;;5091349;28;20039;-37
2024/03/14 06:34:11;;;;;;;2.60;2.40;;;;;;;;;;5091500;28;20082;-33
2024/03/14 06:36:38;;;;;;;2.60;2.40;;;;;;;;;;5091439;28;20024;-35
2024/03/14 06:39:08;;;;;;;2.90;2.70;;;;;;;;;;5091360;28;20024;-39
2024/03/14 06:41:35;;;;;;;3.78;2.70;;;;;;;;;;5091215;28;20031;-38
2024/03/14 06:44:02;;;;;;;3.22;2.92;;;;;;;;;;5091336;28;20032;-38
2024/03/14 06:46:29;;;;;;;3.08;2.85;;;;;;;;;;5093070;28;20456;-37
2024/03/14 06:48:56;;;;;;;3.78;3.45;;;;;;;;;;5095288;28;20024;-35
2024/03/14 06:51:24;;;;;;;3.83;3.53;;;;;;;;;;5095169;28;20028;-35
2024/03/14 06:53:52;;;;;;;4.88;3.60;;;;;;;;;;5095193;28;20051;-35
2024/03/14 06:56:19;;;;;;;5.05;3.55;;;;;;;;;;5095124;28;20020;-36
2024/03/14 06:58:46;;;;;;;3.30;3.00;;;;;;;;;;5095171;28;20535;-36
2024/03/14 07:01:18;;;;;;;3.17;2.72;;;;;;;;;;5095016;28;20020;-35
2024/03/14 07:03:45;;;;;;;2.80;2.30;;;;;;;;;;5094987;28;20036;-34
2024/03/14 07:06:14;;;;;;;2.60;2.20;;;;;;;;;;5094978;28;20103;-36
2024/03/14 07:08:44;;;;;;;2.85;1.70;;;;;;;;;;5094613;28;20055;-38
2024/03/14 07:11:15;;;;;;;1.92;1.38;;;;;;;;;;5094761;28;20074;-35
2024/03/14 07:13:48;;;;;;;4.97;1.30;;;;;;;;;;5094856;28;20115;-35
2024/03/14 07:16:16;;;;;;;1.63;1.05;;;;;;;;;;5094512;28;20108;-36
2024/03/14 07:18:45;;;;;;;1.25;0.98;;;;;;;;;;5094694;28;20020;-36
2024/03/14 07:21:12;;;;;;;4.97;1.05;;;;;;;;;;5094524;28;20031;-36
2024/03/14 07:23:39;;;;;;;3.03;0.95;;;;;;;;;;5094539;28;20746;-34
2024/03/14 07:26:07;;;;;;;2.15;0.90;;;;;;;;;;5094599;28;20012;-37
2024/03/14 07:28:34;;;;;;;4.32;1.10;;;;;;;;;;5094369;28;20035;-34
2024/03/14 07:31:04;;;;;;;5.15;0.90;;;;;;;;;;5094381;28;20016;-34
2024/03/14 07:33:31;;;;;;;4.82;0.80;;;;;;;;;;5094300;28;20036;-33
2024/03/14 07:35:58;;;;;;;9.75;1.10;;;;;;;;;;5094410;28;20024;-36
2024/03/14 07:38:27;;;;;;;6.10;1.25;;;;;;;;;;5094397;28;20032;-34
2024/03/14 07:40:55;;;;;;;4.78;0.90;;;;;;;;;;5094250;28;20028;-35
2024/03/14 07:43:22;;;;;;;5.85;0.80;;;;;;;;;;5094012;28;20024;-35
2024/03/14 07:45:49;;;;;;;6.93;0.85;;;;;;;;;;5094235;28;20034;-35
2024/03/14 07:48:17;;;;;;;1.42;0.50;;;;;;;;;;5094199;28;20074;-34
2024/03/14 07:50:44;;;;;;;5.22;0.75;;;;;;;;;;5094030;28;20036;-36
2024/03/14 07:53:12;;;;;;;3.55;0.90;;;;;;;;;;5093942;28;20024;-36
2024/03/14 07:55:39;;;;;;;6.10;1.08;;;;;;;;;;5093875;28;20029;-33
2024/03/14 07:58:08;;;;;;;3.35;0.90;;;;;;;;;;5093498;28;20024;-36
2024/03/14 08:00:36;;;;;;;2.20;0.77;;;;;;;;;;5093921;28;20060;-33
2024/03/14 08:03:03;;;;;;;4.82;0.60;;;;;;;;;;5093643;28;20037;-34
2024/03/14 08:05:31;;;;;;;4.55;0.75;;;;;;;;;;5093752;28;20032;-35
2024/03/14 08:08:01;;;;;;;3.20;0.80;;;;;;;;;;5093493;28;20052;-34
2024/03/14 08:10:28;;;;;;;2.38;0.80;;;;;;;;;;5093678;28;20032;-35
2024/03/14 08:12:57;;;;;;;3.60;0.73;;;;;;;;;;5093705;28;20457;-36
2024/03/14 08:15:37;;;;;;;2.75;0.82;;;;;;;;;;5093549;28;20032;-33
2024/03/14 08:18:11;;;;;;;3.70;0.70;;;;;;;;;;5093590;28;20432;-36
2024/03/14 08:20:38;;;;;;;2.95;0.73;;;;;;;;;;5093345;28;20028;-36
2024/03/14 08:23:05;;;;;;;2.47;0.82;;;;;;;;;;5093391;28;20036;-34
2024/03/14 08:25:38;;;;;;;1.42;0.70;;;;;;;;;;5093357;28;20043;-35
2024/03/14 08:28:06;;;;;;;1.60;0.60;;;;;;;;;;5093406;28;20026;-33
2024/03/14 08:30:37;;;;;;;3.85;0.68;;;;;;;;;;5093277;28;20103;-37
2024/03/14 08:33:04;;;;;;;2.35;0.73;;;;;;;;;;5093154;28;20040;-37
2024/03/14 08:35:36;;;;;;;3.75;1.00;;;;;;;;;;5093226;28;20077;-33
2024/03/14 08:38:04;;;;;;;4.93;1.10;;;;;;;;;;5093044;28;20024;-33
2024/03/14 08:40:31;;;;;;;5.53;0.70;;;;;;;;;;5093066;28;20071;-36
2024/03/14 08:42:58;;;;;;;3.45;0.80;;;;;;;;;;5093072;28;20031;-36
2024/03/14 08:45:25;;;;;;;5.35;0.77;;;;;;;;;;5092882;28;20032;-34
2024/03/14 08:47:52;;;;;;;4.65;0.88;;;;;;;;;;5092996;28;20028;-36
2024/03/14 08:50:22;;;;;;;4.78;0.77;;;;;;;;;;5092972;28;20097;-34
2024/03/14 08:52:50;;;;;;;3.42;0.93;;;;;;;;;;5092885;28;20028;-33
2024/03/14 08:55:23;;;;;;;1.67;0.68;;;;;;;;;;5092794;28;20055;-34
2024/03/14 08:57:53;;;;;;;2.78;0.90;;;;;;;;;;5092715;28;20028;-35
2024/03/14 09:00:23;;;;;;;3.80;0.77;;;;;;;;;;5091340;28;20153;-33
2024/03/14 09:02:50;;;;;;;2.75;0.75;;;;;;;;;;5082848;28;20825;-36
2024/03/14 09:05:17;;;;;;;2.83;0.70;;;;;;;;;;5080948;28;20446;-33
2024/03/14 09:07:45;;;;;;;3.08;0.70;;;;;;;;;;5082852;28;20056;-34
2024/03/14 09:10:16;;;;;;;3.13;0.55;;;;;;;;;;5079966;28;20057;-37
2024/03/14 09:12:45;;;;;;;3.58;0.63;;;;;;;;;;5074523;28;20482;-33
2024/03/14 09:15:13;;;;;;;2.95;0.68;;;;;;;;;;5072044;28;20070;-34
2024/03/14 09:17:40;;;;;;;2.22;0.70;;;;;;;;;;5072063;28;20040;-35
2024/03/14 09:20:15;;;;;;;3.88;1.02;;;;;;;;;;5074574;28;20035;-35
2024/03/14 09:22:46;;;;;;;4.40;0.75;;;;;;;;;;5080207;28;20032;-35
2024/03/14 09:25:14;;;;;;;5.60;0.80;;;;;;;;;;5080560;28;20043;-36
2024/03/14 09:27:44;;;;;;;2.10;0.60;;;;;;;;;;5081410;28;20032;-33
2024/03/14 09:30:11;;;;;;;1.27;0.68;;;;;;;;;;5082361;28;20027;-33
2024/03/14 09:32:40;;;;;;;4.45;0.60;;;;;;;;;;5082035;28;20035;-34
2024/03/14 09:35:11;;;;;;;5.85;0.90;;;;;;;;;;5081663;28;20085;-35
2024/03/14 09:37:38;;;;;;;2.65;0.73;;;;;;;;;;5081577;28;20092;-34
2024/03/14 09:40:13;;;;;;;5.63;0.90;;;;;;;;;;5078297;28;20498;-35
2024/03/14 09:42:47;;;;;;;4.20;0.50;;;;;;;;;;5075164;28;20027;-33
2024/03/14 09:45:14;;;;;;;3.05;0.75;;;;;;;;;;5078424;28;20162;-33
2024/03/14 09:47:43;;;;;;;7.65;0.95;;;;;;;;;;5086880;28;20028;-35
2024/03/14 09:50:17;;;;;;;2.92;0.73;;;;;;;;;;5092221;28;20062;-33
2024/03/14 09:52:51;;;;;;;2.30;0.82;;;;;;;;;;5091656;28;20051;-34
2024/03/14 09:55:18;;;;;;;4.95;0.73;;;;;;;;;;5091691;28;20035;-35
2024/03/14 09:57:51;;;;;;;5.95;0.80;;;;;;;;;;5091843;28;20032;-34
2024/03/14 10:00:24;;;;;;;1.50;0.55;;;;;;;;;;5091649;28;20032;-34
2024/03/14 10:02:58;;;;;;;8.68;0.90;;;;;;;;;;5091483;28;20039;-35
2024/03/14 10:05:25;;;;;;;8.32;0.85;;;;;;;;;;5091668;28;20143;-34
2024/03/14 10:07:55;;;;;;;3.65;0.75;;;;;;;;;;5091301;28;20141;-34
2024/03/14 10:10:23;;;;;;;8.77;0.70;;;;;;;;;;5091704;28;20067;-35
2024/03/14 10:12:53;;;;;;;3.25;0.77;;;;;;;;;;5091434;28;20031;-34
2024/03/14 10:15:20;;;;;;;2.40;0.80;;;;;;;;;;5091686;28;20040;-34
2024/03/14 10:17:48;;;;;;;4.60;0.80;;;;;;;;;;5091556;28;20027;-33
2024/03/14 10:20:17;;;;;;;3.60;0.93;;;;;;;;;;5093113;28;20024;-34
2024/03/14 10:22:48;;;;;;;3.63;0.75;;;;;;;;;;5095589;28;20110;-33
2024/03/14 10:25:23;;;;;;;4.80;0.85;;;;;;;;;;5077485;28;20043;-34
2024/03/14 10:27:54;;;;;;;4.88;0.70;;;;;;;;;;5095636;28;20036;-33
2024/03/14 10:30:28;;;;;;;5.73;1.17;;;;;;;;;;5095559;28;20028;-33
2024/03/14 10:32:56;;;;;;;2.97;0.68;;;;;;;;;;5095437;28;20486;-33
2024/03/14 10:35:23;;;;;;;3.92;0.98;;;;;;;;;;5095481;28;20054;-34
2024/03/14 10:37:51;;;;;;;3.85;0.95;;;;;;;;;;5095316;28;20035;-36
2024/03/14 10:40:28;;;;;;;4.57;0.73;;;;;;;;;;5095478;28;20028;-33
2024/03/14 10:42:55;;;;;;;3.20;0.80;;;;;;;;;;5095371;28;20027;-37
2024/03/14 10:45:23;;;;;;;6.40;0.93;;;;;;;;;;5095370;28;20382;-34
2024/03/14 10:47:51;;;;;;;3.55;0.90;;;;;;;;;;5095138;28;20500;-33
2024/03/14 10:50:22;;;;;;;3.92;0.85;;;;;;;;;;5095292;28;20024;-34
2024/03/14 10:52:49;;;;;;;7.47;0.77;;;;;;;;;;5095007;28;20430;-34
2024/03/14 10:55:23;;;;;;;5.53;1.00;;;;;;;;;;5095145;28;20032;-35
2024/03/14 10:57:51;;;;;;;6.07;0.90;;;;;;;;;;5095120;28;20051;-34
2024/03/14 11:00:19;;;;;;;2.83;0.80;;;;;;;;;;5095165;28;20378;-33
2024/03/14 11:02:49;;;;;;;3.45;0.80;;;;;;;;;;5094939;28;20426;-35
2024/03/14 11:05:23;;;;;;;21.33;1.30;;;;;;;;;;5056717;28;20405;-34
2024/03/14 11:08:00;;;;;;;2.90;0.90;;;;;;;;;;5074407;28;20495;-34
2024/03/14 11:10:28;;;;;;;4.63;0.88;;;;;;;;;;5074432;28;20024;-34
2024/03/14 11:13:07;;;;;;;8.02;0.90;;;;;;;;;;5074578;28;20038;-37
2024/03/14 11:15:38;;;;;;;4.13;1.00;;;;;;;;;;5074580;28;20032;-33
2024/03/14 11:18:13;;;;;;;8.55;1.10;;;;;;;;;;5074498;28;20641;-33
2024/03/14 11:20:42;;;;;;;6.22;0.90;;;;;;;;;;5074312;28;20429;-34
2024/03/14 11:23:13;;;;;;;8.68;0.90;;;;;;;;;;5074359;28;20048;-36
2024/03/14 11:25:43;;;;;;;10.23;1.10;;;;;;;;;;5074133;28;20115;-33
2024/03/14 11:28:12;;;;;;;4.65;1.13;;;;;;;;;;5074336;28;20089;-33
2024/03/14 11:30:42;;;;;;;7.63;1.00;;;;;;;;;;5074068;28;20028;-35
2024/03/14 11:33:09;;;;;;;2.45;0.60;;;;;;;;;;5073308;28;20060;-35
2024/03/14 11:35:42;;;;;;;8.88;0.90;;;;;;;;;;5074091;28;20131;-34
2024/03/14 11:38:21;;;;;;;7.88;0.80;;;;;;;;;;5074238;28;20441;-32
2024/03/14 11:40:48;;;;;;;4.32;0.80;;;;;;;;;;5074095;28;20555;-34
2024/03/14 11:43:15;;;;;;;4.55;0.90;;;;;;;;;;5074016;28;20032;-33
2024/03/14 11:45:42;;;;;;;4.15;0.90;;;;;;;;;;5073622;28;20033;-35
2024/03/14 11:48:11;;;;;;;8.68;0.90;;;;;;;;;;5073905;28;20028;-33
2024/03/14 11:50:40;;;;;;;7.88;1.45;;;;;;;;;;5073750;28;20025;-38
2024/03/14 11:53:11;;;;;;;11.70;1.42;;;;;;;;;;5073835;28;20028;-34
2024/03/14 11:55:39;;;;;;;4.10;1.00;;;;;;;;;;5073596;28;20403;-38
2024/03/14 11:58:15;;;;;;;7.53;1.20;;;;;;;;;;5088364;28;20043;-36
2024/03/14 12:00:43;;;;;;;5.47;1.08;;;;;;;;;;5075484;28;20032;-36
2024/03/14 12:03:11;;;;;;;5.78;0.88;;;;;;;;;;5093412;28;20028;-35
2024/03/14 12:05:42;;;;;;;4.82;0.70;;;;;;;;;;5083343;28;20383;-36
2024/03/14 12:08:10;;;;;;;11.27;1.40;;;;;;;;;;5083435;28;20153;-35
2024/03/14 12:10:40;;;;;;;3.65;1.20;;;;;;;;;;5082883;28;20128;-36
2024/03/14 12:13:19;;;;;;;5.10;0.98;;;;;;;;;;5083815;28;20020;-34
2024/03/14 12:15:46;;;;;;;11.57;1.20;;;;;;;;;;5083907;28;20108;-33
2024/03/14 12:18:16;;;;;;;16.58;1.38;;;;;;;;;;5082366;28;20020;-34
2024/03/14 12:20:49;;;;;;;6.03;1.00;;;;;;;;;;5081770;28;20115;-36
2024/03/14 12:23:16;;;;;;;4.32;0.80;;;;;;;;;;5088456;28;20032;-34
2024/03/14 12:25:50;;;;;;;2.72;0.90;;;;;;;;;;5093291;28;20528;-35
2024/03/14 12:28:17;;;;;;;5.15;1.10;;;;;;;;;;5093260;28;20161;-37
2024/03/14 12:30:45;;;;;;;4.75;0.80;;;;;;;;;;5093304;28;20084;-36
2024/03/14 12:33:12;;;;;;;4.55;0.80;;;;;;;;;;5092725;28;20070;-40
2024/03/14 12:35:41;;;;;;;4.88;0.73;;;;;;;;;;5093079;28;20028;-39
2024/03/14 12:38:15;;;;;;;4.38;0.88;;;;;;;;;;5093170;28;20030;-39
2024/03/14 12:40:48;;;;;;;2.60;0.82;;;;;;;;;;5093151;28;20032;-39
2024/03/14 12:43:19;;;;;;;6.50;1.00;;;;;;;;;;5092034;28;20036;-41
2024/03/14 12:45:46;;;;;;;5.07;0.88;;;;;;;;;;5092990;28;20439;-37
2024/03/14 12:48:16;;;;;;;4.22;1.10;;;;;;;;;;5073350;28;20035;-39
2024/03/14 12:50:45;;;;;;;3.72;1.00;;;;;;;;;;5088702;28;20031;-36
2024/03/14 12:53:22;;;;;;;7.03;0.80;;;;;;;;;;5092836;28;20031;-40
2024/03/14 12:55:52;;;;;;;14.30;1.10;;;;;;;;;;5092658;28;20498;-37
2024/03/14 12:58:21;;;;;;;3.25;0.70;;;;;;;;;;5092727;28;20065;-38
2024/03/14 13:00:56;;;;;;;13.32;0.98;;;;;;;;;;5092683;28;20020;-38
2024/03/14 13:03:23;;;;;;;12.15;1.30;;;;;;;;;;5092573;28;20032;-36
2024/03/14 13:05:59;;;;;;;5.45;0.90;;;;;;;;;;5092735;28;20032;-36
2024/03/14 13:08:28;;;;;;;8.20;0.90;;;;;;;;;;5092435;28;20098;-40
2024/03/14 13:11:10;;;;;;;8.18;1.08;;;;;;;;;;5092429;28;20034;-36
2024/03/14 13:13:37;;;;;;;10.38;1.20;;;;;;;;;;5092588;28;20507;-38
2024/03/14 13:16:17;;;;;;;8.30;1.30;;;;;;;;;;5092512;28;20020;-36
2024/03/14 13:18:46;;;;;;;5.57;1.05;;;;;;;;;;5092362;28;20024;-36
2024/03/14 13:21:13;;;;;;;14.35;1.35;;;;;;;;;;5092213;28;20027;-40
2024/03/14 13:23:45;;;;;;;10.43;1.02;;;;;;;;;;5092324;28;20490;-40
2024/03/14 13:26:12;;;;;;;10.18;1.00;;;;;;;;;;5092244;28;20078;-37
2024/03/14 13:28:40;;;;;;;14.13;1.20;;;;;;;;;;5092218;28;20031;-37
2024/03/14 13:31:12;;;;;;;6.18;0.85;;;;;;;;;;5092083;28;20032;-35
2024/03/14 13:33:39;;;;;;;6.30;1.00;;;;;;;;;;5092118;28;20081;-39
2024/03/14 13:36:09;;;;;;;13.32;1.27;;;;;;;;;;5092122;28;20038;-39
2024/03/14 13:38:37;;;;;;;4.80;1.10;;;;;;;;;;5091964;28;20024;-37
2024/03/14 13:41:04;;;;;;;8.43;1.10;;;;;;;;;;5091884;28;20039;-38
2024/03/14 13:43:34;;;;;;;7.43;0.90;;;;;;;;;;5091858;28;20031;-36
2024/03/14 13:46:01;;;;;;;8.95;0.98;;;;;;;;;;5092051;28;20062;-36
2024/03/14 13:48:32;;;;;;;14.70;1.15;;;;;;;;;;5092020;28;20104;-35
2024/03/14 13:50:59;;;;;;;5.18;1.02;;;;;;;;;;5091831;28;20030;-40
2024/03/14 13:53:26;;;;;;;6.53;1.08;;;;;;;;;;5091940;28;20036;-37
2024/03/14 13:55:56;;;;;;;11.00;1.58;;;;;;;;;;5091610;28;20024;-40
2024/03/14 13:58:25;;;;;;;10.30;1.10;;;;;;;;;;5091908;28;20124;-38
2024/03/14 14:00:56;;;;;;;4.85;0.82;;;;;;;;;;5091664;28;20494;-38
2024/03/14 14:03:23;;;;;;;4.22;0.68;;;;;;;;;;5091572;28;20057;-37
2024/03/14 14:05:56;;;;;;;6.18;1.27;;;;;;;;;;5091789;28;20024;-40
2024/03/14 14:08:30;;;;;;;10.00;1.10;;;;;;;;;;5091358;28;20584;-40
2024/03/14 14:10:58;;;;;;;6.72;1.02;;;;;;;;;;5073396;28;20051;-40
2024/03/14 14:13:25;;;;;;;14.10;1.50;;;;;;;;;;5091646;28;20024;-35
2024/03/14 14:15:52;;;;;;;7.72;1.05;;;;;;;;;;5091750;28;20031;-38
2024/03/14 14:18:19;;;;;;;11.00;1.20;;;;;;;;;;5091521;28;20036;-40
2024/03/14 14:20:46;;;;;;;4.57;0.70;;;;;;;;;;5091628;28;20427;-39
2024/03/14 14:23:13;;;;;;;5.57;1.10;;;;;;;;;;5091641;28;20527;-40
2024/03/14 14:25:40;;;;;;;9.38;1.40;;;;;;;;;;5091519;28;20040;-39
2024/03/14 14:28:10;;;;;;;8.35;0.80;;;;;;;;;;5091635;28;20024;-38
2024/03/14 14:30:38;;;;;;;5.50;1.00;;;;;;;;;;5091466;28;20116;-38
2024/03/14 14:33:06;;;;;;;5.00;0.70;;;;;;;;;;5091415;28;20036;-39
2024/03/14 14:35:35;;;;;;;4.32;0.70;;;;;;;;;;5091456;28;20036;-39
2024/03/14 14:38:03;;;;;;;7.28;1.00;;;;;;;;;;5091375;28;20032;-40
2024/03/14 14:40:30;;;;;;;4.65;0.80;;;;;;;;;;5091406;28;20020;-39
2024/03/14 14:42:58;;;;;;;1.77;0.57;;;;;;;;;;5091386;28;20549;-38
2024/03/14 14:45:25;;;;;;;4.85;0.80;;;;;;;;;;5091223;28;20040;-38
2024/03/14 14:47:52;;;;;;;3.03;0.80;;;;;;;;;;5073227;28;20032;-39
2024/03/14 14:50:19;;;;;;;3.67;0.50;;;;;;;;;;5091372;28;20107;-38